createdAt,value
2019-03-15T00:01:01.060Z,98395.47
2019-03-15T00:03:31.496Z,98400.92
2019-03-15T00:06:01.960Z,98396.46
2019-03-15T00:08:32.658Z,98404.59
2019-03-15T00:11:03.306Z,98403.44
2019-03-15T00:13:35.080Z,98399.95
2019-03-15T00:16:05.557Z,98408.74
2019-03-15T00:18:35.985Z,98411.09
2019-03-15T00:21:06.470Z,98408.42
2019-03-15T00:23:36.895Z,98408.09
2019-03-15T00:26:07.635Z,98410.39
2019-03-15T00:28:38.116Z,98415.70
2019-03-15T00:31:08.868Z,98417.38
2019-03-15T00:33:39.715Z,98418.36
2019-03-15T00:36:10.558Z,98420.67
2019-03-15T00:38:41.001Z,98425.17
2019-03-15T00:41:11.471Z,98424.66
2019-03-15T00:43:42.267Z,98422.35
2019-03-15T00:46:13.364Z,98419.88
2019-03-15T00:48:44.136Z,98421.69
2019-03-15T00:51:14.612Z,98420.38
2019-03-15T00:53:45.047Z,98414.08
2019-03-15T00:56:15.873Z,98414.91
2019-03-15T00:58:46.345Z,98412.92
2019-03-15T01:01:17.210Z,98419.41
2019-03-15T01:03:47.636Z,98428.20
2019-03-15T01:06:18.790Z,98429.67
2019-03-15T01:08:49.253Z,98429.84
2019-03-15T01:11:19.721Z,98439.48
2019-03-15T01:13:50.211Z,98445.28
2019-03-15T01:16:20.669Z,98443.30
2019-03-15T01:18:51.098Z,98448.44
2019-03-15T01:21:21.552Z,98453.91
2019-03-15T01:23:51.989Z,98443.63
2019-03-15T01:26:22.640Z,98450.57
2019-03-15T01:28:53.068Z,98442.12
2019-03-15T01:31:23.916Z,98432.49
2019-03-15T01:33:54.361Z,98443.27
2019-03-15T01:36:25.050Z,98447.91
2019-03-15T01:38:55.544Z,98448.94
2019-03-15T01:41:26.013Z,98450.09
2019-03-15T01:43:56.475Z,98447.75
2019-03-15T01:46:26.916Z,98452.92
2019-03-15T01:48:57.376Z,98449.77
2019-03-15T01:51:27.807Z,98444.13
2019-03-15T01:53:59.120Z,98453.08
2019-03-15T01:56:29.563Z,98447.27
2019-03-15T01:59:00.420Z,98452.91
2019-03-15T02:01:31.051Z,98449.61
2019-03-15T02:04:01.758Z,98452.43
2019-03-15T02:06:32.243Z,98448.76
2019-03-15T02:09:02.673Z,98454.39
2019-03-15T02:11:33.182Z,98465.86
2019-03-15T02:14:03.666Z,98467.35
2019-03-15T02:16:34.527Z,98472.66
2019-03-15T02:19:05.444Z,98470.17
2019-03-15T02:21:36.281Z,98475.30
2019-03-15T02:24:06.714Z,98467.68
2019-03-15T02:26:37.564Z,98472.14
2019-03-15T02:29:07.987Z,98475.78
2019-03-15T02:31:39.128Z,98460.70
2019-03-15T02:34:09.563Z,98466.33
2019-03-15T02:36:40.269Z,98477.95
2019-03-15T02:39:10.929Z,98474.63
2019-03-15T02:41:41.389Z,98473.30
2019-03-15T02:44:12.648Z,98482.44
2019-03-15T02:46:43.548Z,98476.45
2019-03-15T02:49:14.002Z,98473.12
2019-03-15T02:51:44.460Z,98477.14
2019-03-15T02:54:14.892Z,98478.13
2019-03-15T02:56:45.397Z,98476.47
2019-03-15T02:59:16.198Z,98477.97
2019-03-15T03:01:46.945Z,98490.39
2019-03-15T03:04:17.410Z,98494.03
2019-03-15T03:06:47.844Z,98491.07
2019-03-15T03:09:19.293Z,98495.05
2019-03-15T03:11:50.459Z,98489.23
2019-03-15T03:14:21.216Z,98496.38
2019-03-15T03:16:51.692Z,98495.53
2019-03-15T03:19:22.267Z,98480.59
2019-03-15T03:21:53.248Z,98487.40
2019-03-15T03:24:24.543Z,98494.20
2019-03-15T03:26:55.090Z,98503.66
2019-03-15T03:29:25.618Z,98496.35
2019-03-15T03:31:56.402Z,98498.53
2019-03-15T03:34:26.854Z,98501.34
2019-03-15T03:36:58.169Z,98501.52
2019-03-15T03:39:29.120Z,98509.31
2019-03-15T03:41:59.961Z,98498.84
2019-03-15T03:44:30.420Z,98506.97
2019-03-15T03:47:00.878Z,98519.25
2019-03-15T03:49:32.068Z,98526.05
2019-03-15T03:52:02.732Z,98528.19
2019-03-15T03:54:33.645Z,98528.36
2019-03-15T03:57:04.908Z,98529.21
2019-03-15T03:59:35.732Z,98536.19
2019-03-15T04:02:06.195Z,98530.20
2019-03-15T04:04:36.975Z,98549.77
2019-03-15T04:07:07.533Z,98548.60
2019-03-15T04:09:38.305Z,98547.61
2019-03-15T04:12:08.775Z,98545.95
2019-03-15T04:14:39.227Z,98542.48
2019-03-15T04:17:09.691Z,98545.95
2019-03-15T04:19:40.503Z,98541.97
2019-03-15T04:22:11.248Z,98540.33
2019-03-15T04:24:42.952Z,98551.42
2019-03-15T04:27:13.390Z,98545.78
2019-03-15T04:29:43.861Z,98547.27
2019-03-15T04:32:14.291Z,98553.91
2019-03-15T04:34:44.995Z,98562.55
2019-03-15T04:37:15.463Z,98563.20
2019-03-15T04:39:46.308Z,98570.34
2019-03-15T04:42:17.221Z,98572.34
2019-03-15T04:44:47.701Z,98572.01
2019-03-15T04:47:18.538Z,98570.98
2019-03-15T04:49:49.378Z,98573.98
2019-03-15T04:52:19.853Z,98571.16
2019-03-15T04:54:50.287Z,98561.22
2019-03-15T04:57:20.722Z,98571.36
2019-03-15T04:59:51.200Z,98566.36
2019-03-15T05:02:21.637Z,98572.17
2019-03-15T05:04:52.073Z,98564.22
2019-03-15T05:07:23.194Z,98558.09
2019-03-15T05:09:53.616Z,98565.03
2019-03-15T05:12:24.045Z,98570.52
2019-03-15T05:14:54.523Z,98563.53
2019-03-15T05:17:24.956Z,98568.03
2019-03-15T05:19:55.728Z,98571.67
2019-03-15T05:22:26.620Z,98576.97
2019-03-15T05:24:57.056Z,98585.92
2019-03-15T05:27:28.244Z,98582.28
2019-03-15T05:29:58.964Z,98575.48
2019-03-15T05:32:31.006Z,98578.95
2019-03-15T05:35:02.184Z,98569.36
2019-03-15T05:37:32.821Z,98565.38
2019-03-15T05:40:03.872Z,98562.04
2019-03-15T05:42:34.356Z,98571.02
2019-03-15T05:45:04.923Z,98564.70
2019-03-15T05:47:35.413Z,98576.13
2019-03-15T05:50:06.810Z,98565.03
2019-03-15T05:52:37.661Z,98564.35
2019-03-15T05:55:09.609Z,98569.36
2019-03-15T05:57:40.072Z,98574.16
2019-03-15T06:00:12.217Z,98578.78
2019-03-15T06:02:42.645Z,98577.45
2019-03-15T06:05:13.368Z,98571.84
2019-03-15T06:07:43.850Z,98574.80
2019-03-15T06:10:14.770Z,98569.02
2019-03-15T06:12:45.200Z,98557.92
2019-03-15T06:15:15.682Z,98549.11
2019-03-15T06:17:46.121Z,98569.18
2019-03-15T06:20:16.555Z,98556.73
2019-03-15T06:22:47.408Z,98559.72
2019-03-15T06:25:17.840Z,98549.27
2019-03-15T06:27:48.292Z,98550.12
2019-03-15T06:30:18.751Z,98542.30
2019-03-15T06:32:49.217Z,98538.48
2019-03-15T06:35:20.423Z,98538.83
2019-03-15T06:37:50.936Z,98534.02
2019-03-15T06:40:22.069Z,98542.16
2019-03-15T06:42:53.215Z,98536.84
2019-03-15T06:45:24.059Z,98536.34
2019-03-15T06:47:54.493Z,98533.17
2019-03-15T06:50:25.322Z,98533.84
2019-03-15T06:52:56.195Z,98534.36
2019-03-15T06:55:27.000Z,98535.84
2019-03-15T06:57:57.757Z,98532.67
2019-03-15T07:00:28.612Z,98521.23
2019-03-15T07:02:59.049Z,98523.88
2019-03-15T07:05:30.155Z,98527.69
2019-03-15T07:08:00.631Z,98526.22
2019-03-15T07:10:31.064Z,98521.03
2019-03-15T07:13:01.925Z,98514.25
2019-03-15T07:15:32.577Z,98514.91
2019-03-15T07:18:03.005Z,98510.08
2019-03-15T07:20:33.743Z,98514.91
2019-03-15T07:23:04.229Z,98502.95
2019-03-15T07:25:35.052Z,98502.61
2019-03-15T07:28:05.491Z,98491.66
2019-03-15T07:30:35.964Z,98493.33
2019-03-15T07:33:06.392Z,98503.09
2019-03-15T07:35:36.828Z,98501.77
2019-03-15T07:38:08.116Z,98507.58
2019-03-15T07:40:38.565Z,98498.94
2019-03-15T07:43:09.961Z,98502.10
2019-03-15T07:45:41.309Z,98487.98
2019-03-15T07:48:21.759Z,98487.00
2019-03-15T07:50:43.900Z,98502.57
2019-03-15T07:53:15.044Z,98498.09
2019-03-15T07:55:45.480Z,98502.59
2019-03-15T07:58:16.236Z,98503.24
2019-03-15T08:00:46.725Z,98507.56
2019-03-15T08:03:17.195Z,98499.59
2019-03-15T08:05:47.628Z,98494.80
2019-03-15T08:08:18.108Z,98490.48
2019-03-15T08:10:48.918Z,98494.97
2019-03-15T08:13:21.367Z,98498.59
2019-03-15T08:15:51.892Z,98495.26
2019-03-15T08:18:22.324Z,98494.80
2019-03-15T08:20:53.074Z,98494.94
2019-03-15T08:23:23.860Z,98504.25
2019-03-15T08:25:55.063Z,98504.91
2019-03-15T08:28:26.371Z,98494.30
2019-03-15T08:30:57.353Z,98497.11
2019-03-15T08:33:28.116Z,98494.13
2019-03-15T08:35:58.911Z,98498.63
2019-03-15T08:38:29.391Z,98491.66
2019-03-15T08:40:59.824Z,98488.84
2019-03-15T08:43:30.630Z,98495.65
2019-03-15T08:46:02.997Z,98493.17
2019-03-15T08:48:33.707Z,98491.84
2019-03-15T08:51:04.901Z,98494.97
2019-03-15T08:53:35.380Z,98496.94
2019-03-15T08:56:05.896Z,98500.61
2019-03-15T08:58:36.340Z,98493.17
2019-03-15T09:01:10.773Z,98488.33
2019-03-15T09:03:40.386Z,98482.53
2019-03-15T09:06:11.146Z,98478.89
2019-03-15T09:08:41.615Z,98485.50
2019-03-15T09:11:12.049Z,98494.81
2019-03-15T09:13:42.757Z,98484.34
2019-03-15T09:16:13.235Z,98469.89
2019-03-15T09:18:43.667Z,98471.89
2019-03-15T09:21:14.100Z,98469.22
2019-03-15T09:23:44.587Z,98476.70
2019-03-15T09:26:15.017Z,98480.52
2019-03-15T09:28:45.499Z,98468.77
2019-03-15T09:31:15.992Z,98466.59
2019-03-15T09:33:46.425Z,98464.95
2019-03-15T09:36:17.224Z,98464.44
2019-03-15T09:38:47.842Z,98453.31
2019-03-15T09:41:30.869Z,98459.11
2019-03-15T09:43:50.801Z,98457.45
2019-03-15T09:46:21.278Z,98465.75
2019-03-15T09:48:53.228Z,98459.94
2019-03-15T09:51:23.664Z,98446.99
2019-03-15T09:53:54.595Z,98444.50
2019-03-15T09:56:27.868Z,98443.51
2019-03-15T09:58:57.706Z,98435.55
2019-03-15T10:01:35.238Z,98429.55
2019-03-15T10:04:00.673Z,98424.41
2019-03-15T10:06:31.827Z,98408.77
2019-03-15T10:09:02.291Z,98401.50
2019-03-15T10:11:33.246Z,98400.50
2019-03-15T10:14:03.684Z,98397.66
2019-03-15T10:16:34.221Z,98397.50
2019-03-15T10:19:04.753Z,98407.16
2019-03-15T10:21:35.501Z,98390.21
2019-03-15T10:24:05.973Z,98393.34
2019-03-15T10:26:36.404Z,98384.53
2019-03-15T10:29:15.440Z,98376.06
2019-03-15T10:31:39.039Z,98375.72
2019-03-15T10:34:10.008Z,98361.26
2019-03-15T10:36:40.800Z,98354.44
2019-03-15T10:39:11.282Z,98356.09
2019-03-15T10:41:41.864Z,98356.45
2019-03-15T10:44:12.645Z,98347.95
2019-03-15T10:46:43.483Z,98347.98
2019-03-15T10:49:14.642Z,98352.27
2019-03-15T10:51:45.568Z,98344.31
2019-03-15T10:54:16.089Z,98341.00
2019-03-15T10:56:46.555Z,98318.60
2019-03-15T10:59:16.975Z,98313.41
2019-03-15T11:01:47.443Z,98316.82
2019-03-15T11:04:18.232Z,98324.49
2019-03-15T11:06:48.667Z,98308.87
2019-03-15T11:09:19.140Z,98307.58
2019-03-15T11:11:49.572Z,98303.63
2019-03-15T11:14:20.969Z,98290.01
2019-03-15T11:16:51.488Z,98286.54
2019-03-15T11:19:21.918Z,98275.84
2019-03-15T11:21:52.675Z,98283.30
2019-03-15T11:24:23.856Z,98279.62
2019-03-15T11:26:54.289Z,98277.51
2019-03-15T11:29:25.172Z,98265.00
2019-03-15T11:31:55.665Z,98264.67
2019-03-15T11:34:26.087Z,98252.82
2019-03-15T11:36:58.571Z,98252.82
2019-03-15T11:39:29.013Z,98242.78
2019-03-15T11:42:00.512Z,98245.11
2019-03-15T11:44:30.943Z,98234.06
2019-03-15T11:47:01.739Z,98232.95
2019-03-15T11:49:32.545Z,98234.83
2019-03-15T11:52:03.355Z,98213.04
2019-03-15T11:54:33.823Z,98225.80
2019-03-15T11:57:04.391Z,98215.17
2019-03-15T11:59:36.267Z,98209.09
2019-03-15T12:02:07.034Z,98205.38
2019-03-15T12:04:37.461Z,98208.30
2019-03-15T12:07:10.261Z,98201.06
2019-03-15T12:09:41.113Z,98189.41
2019-03-15T12:12:11.640Z,98182.34
2019-03-15T12:14:42.178Z,98180.22
2019-03-15T12:17:12.690Z,98186.69
2019-03-15T12:19:43.116Z,98138.05
2019-03-15T12:22:14.533Z,98162.46
2019-03-15T12:24:44.976Z,98145.03
2019-03-15T12:27:15.400Z,98153.70
2019-03-15T12:29:46.184Z,98154.28
2019-03-15T12:32:16.988Z,98152.82
2019-03-15T12:34:47.413Z,98146.63
2019-03-15T12:37:17.904Z,98139.91
2019-03-15T12:39:48.718Z,98145.73
2019-03-15T12:42:19.617Z,98163.68
2019-03-15T12:44:50.079Z,98159.82
2019-03-15T12:47:20.500Z,98173.28
2019-03-15T12:49:51.256Z,98173.47
2019-03-15T12:52:22.140Z,98178.22
2019-03-15T12:54:53.043Z,98189.91
2019-03-15T12:57:23.468Z,98174.55
2019-03-15T12:59:54.371Z,98176.90
2019-03-15T13:02:25.523Z,98169.09
2019-03-15T13:04:56.296Z,98155.83
2019-03-15T13:07:27.543Z,98155.44
2019-03-15T13:09:58.450Z,98144.91
2019-03-15T13:12:28.876Z,98137.16
2019-03-15T13:14:59.363Z,98143.06
2019-03-15T13:17:29.795Z,98145.66
2019-03-15T13:20:00.284Z,98141.73
2019-03-15T13:22:30.805Z,98131.05
2019-03-15T13:25:01.270Z,98124.95
2019-03-15T13:27:31.710Z,98115.23
2019-03-15T13:30:02.276Z,98100.58
2019-03-15T13:32:33.949Z,98106.80
2019-03-15T13:35:05.041Z,98097.67
2019-03-15T13:37:35.899Z,98086.08
2019-03-15T13:40:07.068Z,98075.52
2019-03-15T13:42:37.501Z,98074.28
2019-03-15T13:45:09.547Z,98067.08
2019-03-15T13:47:40.057Z,98059.28
2019-03-15T13:50:11.553Z,98058.16
2019-03-15T13:52:42.451Z,98049.20
2019-03-15T13:55:13.079Z,98058.80
2019-03-15T13:57:44.185Z,98066.64
2019-03-15T14:00:15.314Z,98082.25
2019-03-15T14:02:45.751Z,98058.56
2019-03-15T14:05:16.190Z,98051.38
2019-03-15T14:07:46.728Z,98072.65
2019-03-15T14:10:17.568Z,98062.56
2019-03-15T14:12:48.004Z,98075.05
2019-03-15T14:15:18.581Z,98065.37
2019-03-15T14:17:49.022Z,98054.30
2019-03-15T14:20:19.461Z,98071.46
2019-03-15T14:22:50.327Z,98069.49
2019-03-15T14:25:20.786Z,98060.67
2019-03-15T14:27:51.541Z,98048.33
2019-03-15T14:30:22.650Z,98068.78
2019-03-15T14:32:53.142Z,98058.63
2019-03-15T14:35:24.146Z,98080.38
2019-03-15T14:37:54.835Z,98082.73
2019-03-15T14:40:25.499Z,98064.10
2019-03-15T14:42:55.964Z,98061.33
2019-03-15T14:45:26.796Z,98057.22
2019-03-15T14:47:57.623Z,98063.30
2019-03-15T14:50:28.049Z,98063.75
2019-03-15T14:52:58.525Z,98063.75
2019-03-15T14:55:29.316Z,98055.53
2019-03-15T14:58:00.450Z,98057.88
2019-03-15T15:00:31.128Z,98063.44
2019-03-15T15:03:03.315Z,98066.28
2019-03-15T15:05:35.820Z,98069.12
2019-03-15T15:08:06.256Z,98058.37
2019-03-15T15:10:36.725Z,98076.32
2019-03-15T15:13:08.096Z,98074.97
2019-03-15T15:15:38.523Z,98072.77
2019-03-15T15:18:09.032Z,98075.94
2019-03-15T15:20:39.507Z,98086.58
2019-03-15T15:23:10.259Z,98078.44
2019-03-15T15:25:41.432Z,98086.41
2019-03-15T15:28:12.308Z,98092.67
2019-03-15T15:30:42.766Z,98107.93
2019-03-15T15:33:13.621Z,98101.17
2019-03-15T15:35:44.457Z,98085.63
2019-03-15T15:38:14.907Z,98104.06
2019-03-15T15:40:45.351Z,98107.34
2019-03-15T15:43:15.877Z,98112.55
2019-03-15T15:45:46.311Z,98118.58
2019-03-15T15:48:16.761Z,98098.14
2019-03-15T15:50:47.281Z,98101.09
2019-03-15T15:53:17.681Z,98102.42
2019-03-15T15:55:48.131Z,98111.55
2019-03-15T15:58:18.642Z,98119.88
2019-03-15T16:00:49.060Z,98104.40
2019-03-15T16:03:19.499Z,98096.08
2019-03-15T16:05:49.972Z,98106.55
2019-03-15T16:08:20.772Z,98109.53
2019-03-15T16:10:51.900Z,98123.48
2019-03-15T16:13:22.832Z,98120.97
2019-03-15T16:15:53.275Z,98133.61
2019-03-15T16:18:26.684Z,98136.69
2019-03-15T16:20:56.594Z,98144.48
2019-03-15T16:23:30.183Z,98153.86
2019-03-15T16:25:59.147Z,98142.91
2019-03-15T16:28:31.728Z,98151.91
2019-03-15T16:31:01.791Z,98151.87
2019-03-15T16:33:32.934Z,98132.88
2019-03-15T16:36:03.476Z,98138.21
2019-03-15T16:38:34.297Z,98131.42
2019-03-15T16:41:04.862Z,98138.90
2019-03-15T16:43:35.354Z,98131.22
2019-03-15T16:46:06.823Z,98131.42
2019-03-15T16:48:37.560Z,98131.67
2019-03-15T16:51:18.975Z,98133.20
2019-03-15T16:53:40.167Z,98141.45
2019-03-15T16:56:10.598Z,98135.75
2019-03-15T16:58:45.711Z,98131.75
2019-03-15T17:01:13.201Z,98137.69
2019-03-15T17:03:43.644Z,98139.74
2019-03-15T17:06:14.493Z,98143.22
2019-03-15T17:08:45.245Z,98146.28
2019-03-15T17:11:15.965Z,98139.98
2019-03-15T17:13:48.593Z,98153.40
2019-03-15T17:16:19.480Z,98166.41
2019-03-15T17:18:50.297Z,98161.77
2019-03-15T17:21:20.799Z,98170.84
2019-03-15T17:23:51.552Z,98182.59
2019-03-15T17:26:22.295Z,98194.03
2019-03-15T17:28:58.619Z,98199.73
2019-03-15T17:31:26.327Z,98204.11
2019-03-15T17:33:56.769Z,98191.18
2019-03-15T17:36:27.265Z,98211.92
2019-03-15T17:38:58.063Z,98199.17
2019-03-15T17:41:28.532Z,98216.63
2019-03-15T17:43:59.346Z,98222.70
2019-03-15T17:46:29.799Z,98225.56
2019-03-15T17:49:00.246Z,98238.89
2019-03-15T17:51:30.737Z,98243.60
2019-03-15T17:54:01.227Z,98260.08
2019-03-15T17:56:31.958Z,98247.77
2019-03-15T17:59:12.345Z,98247.02
2019-03-15T18:01:35.296Z,98251.41
2019-03-15T18:04:06.383Z,98254.87
2019-03-15T18:06:36.972Z,98254.23
2019-03-15T18:09:07.772Z,98272.88
2019-03-15T18:11:38.824Z,98269.53
2019-03-15T18:14:11.244Z,98278.86
2019-03-15T18:16:41.687Z,98293.71
2019-03-15T18:19:12.670Z,98285.75
2019-03-15T18:21:43.456Z,98303.58
2019-03-15T18:24:14.191Z,98288.98
2019-03-15T18:26:44.806Z,98309.98
2019-03-15T18:29:25.740Z,98316.70
2019-03-15T18:31:47.395Z,98313.76
2019-03-15T18:34:18.276Z,98323.41
2019-03-15T18:36:51.008Z,98338.19
2019-03-15T18:39:21.748Z,98349.66
2019-03-15T18:41:52.183Z,98352.23
2019-03-15T18:44:22.679Z,98355.08
2019-03-15T18:46:53.103Z,98350.77
2019-03-15T18:49:23.532Z,98338.78
2019-03-15T18:51:54.354Z,98352.77
2019-03-15T18:54:24.853Z,98364.80
2019-03-15T18:56:55.675Z,98367.74
2019-03-15T18:59:38.959Z,98375.73
2019-03-15T19:01:58.306Z,98372.02
2019-03-15T19:04:29.151Z,98391.00
2019-03-15T19:06:59.641Z,98404.88
2019-03-15T19:09:30.076Z,98401.59
2019-03-15T19:12:00.916Z,98408.72
2019-03-15T19:14:31.527Z,98406.14
2019-03-15T19:17:02.668Z,98415.75
2019-03-15T19:19:33.943Z,98419.80
2019-03-15T19:22:04.762Z,98421.02
2019-03-15T19:24:35.206Z,98419.34
2019-03-15T19:27:06.817Z,98429.33
2019-03-15T19:29:37.406Z,98425.70
2019-03-15T19:32:07.903Z,98431.84
2019-03-15T19:34:38.324Z,98446.19
2019-03-15T19:37:09.147Z,98443.86
2019-03-15T19:39:39.980Z,98441.42
2019-03-15T19:42:10.431Z,98458.72
2019-03-15T19:44:41.296Z,98460.86
2019-03-15T19:47:12.052Z,98471.36
2019-03-15T19:49:43.835Z,98477.52
2019-03-15T19:52:14.691Z,98492.86
2019-03-15T19:54:45.271Z,98490.67
2019-03-15T19:57:16.167Z,98484.23
2019-03-15T19:59:46.721Z,98492.58
2019-03-15T20:02:17.840Z,98496.91
2019-03-15T20:04:48.266Z,98492.61
2019-03-15T20:07:19.828Z,98502.55
2019-03-15T20:09:53.312Z,98512.05
2019-03-15T20:12:24.106Z,98523.17
2019-03-15T20:14:54.774Z,98539.47
2019-03-15T20:17:25.344Z,98532.53
2019-03-15T20:19:56.336Z,98541.84
2019-03-15T20:22:27.437Z,98541.97
2019-03-15T20:24:58.742Z,98547.16
2019-03-15T20:27:29.260Z,98534.69
2019-03-15T20:30:00.383Z,98538.52
2019-03-15T20:32:30.935Z,98539.17
2019-03-15T20:35:01.750Z,98549.67
2019-03-15T20:37:32.867Z,98553.48
2019-03-15T20:40:03.371Z,98556.64
2019-03-15T20:42:33.805Z,98569.45
2019-03-15T20:45:04.427Z,98576.81
2019-03-15T20:47:36.283Z,98577.77
2019-03-15T20:50:07.752Z,98591.75
2019-03-15T20:52:40.781Z,98590.11
2019-03-15T20:55:12.074Z,98589.26
2019-03-15T20:57:43.100Z,98595.11
2019-03-15T21:00:14.861Z,98598.77
2019-03-15T21:02:47.616Z,98597.29
2019-03-15T21:05:18.810Z,98604.25
2019-03-15T21:07:49.689Z,98603.77
2019-03-15T21:10:20.160Z,98596.63
2019-03-15T21:12:50.644Z,98596.80
2019-03-15T21:15:21.084Z,98587.66
2019-03-15T21:17:52.059Z,98600.48
2019-03-15T21:20:23.137Z,98611.11
2019-03-15T21:22:53.584Z,98616.92
2019-03-15T21:25:24.088Z,98634.55
2019-03-15T21:27:55.576Z,98635.20
2019-03-15T21:30:26.007Z,98624.73
2019-03-15T21:32:56.874Z,98635.04
2019-03-15T21:35:27.314Z,98633.36
2019-03-15T21:37:57.755Z,98650.16
2019-03-15T21:40:28.233Z,98647.17
2019-03-15T21:42:58.675Z,98647.69
2019-03-15T21:45:29.330Z,98656.50
2019-03-15T21:48:00.111Z,98666.62
2019-03-15T21:50:30.883Z,98666.27
2019-03-15T21:53:01.360Z,98666.78
2019-03-15T21:55:31.799Z,98671.92
2019-03-15T21:58:03.127Z,98668.27
2019-03-15T22:00:33.899Z,98669.27
2019-03-15T22:03:04.320Z,98683.39
2019-03-15T22:05:34.829Z,98678.24
2019-03-15T22:08:05.632Z,98683.22
2019-03-15T22:10:37.438Z,98691.05
2019-03-15T22:13:07.917Z,98691.20
2019-03-15T22:15:38.715Z,98702.98
2019-03-15T22:18:09.168Z,98716.78
2019-03-15T22:20:39.666Z,98705.34
2019-03-15T22:23:10.416Z,98698.83
2019-03-15T22:25:40.949Z,98707.14
2019-03-15T22:28:11.459Z,98720.42
2019-03-15T22:30:41.879Z,98721.41
2019-03-15T22:33:12.688Z,98711.64
2019-03-15T22:35:43.116Z,98717.77
2019-03-15T22:38:25.754Z,98715.12
2019-03-15T22:40:46.789Z,98719.44
2019-03-15T22:43:17.796Z,98725.57
2019-03-15T22:45:48.582Z,98723.09
2019-03-15T22:48:19.038Z,98716.44
2019-03-15T22:50:49.465Z,98742.02
2019-03-15T22:53:20.982Z,98730.06
2019-03-15T22:55:51.823Z,98743.02
2019-03-15T22:58:22.681Z,98729.56
2019-03-15T23:00:53.211Z,98732.89
2019-03-15T23:03:23.646Z,98725.57
2019-03-15T23:05:54.070Z,98738.69
2019-03-15T23:08:24.553Z,98744.98
2019-03-15T23:10:55.374Z,98765.42
2019-03-15T23:13:25.804Z,98760.45
2019-03-15T23:15:56.278Z,98764.27
2019-03-15T23:18:27.039Z,98760.45
2019-03-15T23:20:57.468Z,98752.95
2019-03-15T23:23:28.347Z,98750.47
2019-03-15T23:25:58.773Z,98753.64
2019-03-15T23:28:29.575Z,98762.94
2019-03-15T23:31:00.028Z,98772.41
2019-03-15T23:33:30.614Z,98771.42
2019-03-15T23:36:01.095Z,98773.57
2019-03-15T23:38:31.515Z,98771.94
2019-03-15T23:41:01.939Z,98774.72
2019-03-15T23:43:32.445Z,98771.59
2019-03-15T23:46:03.250Z,98763.92
2019-03-15T23:48:33.704Z,98767.91
2019-03-15T23:51:04.240Z,98772.58
2019-03-15T23:53:35.085Z,98776.55
2019-03-15T23:56:05.941Z,98780.55
2019-03-15T23:58:36.383Z,98788.30
